Hydro, Oklahoma
Current Conditions -  °F | °C
As of 2:55 AM on Wednesday 22 Oct 2014 (Local Time) from KOJA Reporting Station
Clear Clear  
Wind Chill: 61°   Ceiling: Unl
Heat Index: 61°   Visibility: 10mi
Dew Point: 52°   Wind: 6mph
Humidity: 72%   Direction: 170°S
Pressure: 30.07"   Gusts: NA
Location:  35.55°N, 98.58°W
Report Text: KOJA 220755Z AUTO 17005KT 10SM CLR 16/11 A3007 RMK AO2
Loading
Personal Weather Stations






























Interactive Weather Map
Tropical Storm Tracking
New forecast layout! Learn more

10-Day Weather Forecast

Advertisements
Track Severe Weather on mobile